sensor_id;sensor_type;location;lat;lon;timestamp;temperature;humidity
69598;SHT31;70000;51.176;-115.568;2023-12-04T00:00:36;-1.99;88.90
69598;SHT31;70000;51.176;-115.568;2023-12-04T00:03:05;-2.02;88.83
69598;SHT31;70000;51.176;-115.568;2023-12-04T00:05:34;-2.03;89.02
69598;SHT31;70000;51.176;-115.568;2023-12-04T00:08:03;-2.03;89.03
69598;SHT31;70000;51.176;-115.568;2023-12-04T00:10:32;-2.01;89.10
69598;SHT31;70000;51.176;-115.568;2023-12-04T00:13:01;-2.01;89.06
69598;SHT31;70000;51.176;-115.568;2023-12-04T00:15:30;-2.02;89.03
69598;SHT31;70000;51.176;-115.568;2023-12-04T00:18:00;-2.02;89.10
69598;SHT31;70000;51.176;-115.568;2023-12-04T00:20:32;-2.01;89.21
69598;SHT31;70000;51.176;-115.568;2023-12-04T00:23:01;-2.00;89.23
69598;SHT31;70000;51.176;-115.568;2023-12-04T00:25:30;-1.97;89.25
69598;SHT31;70000;51.176;-115.568;2023-12-04T00:27:59;-1.93;89.34
69598;SHT31;70000;51.176;-115.568;2023-12-04T00:30:29;-1.89;89.36
69598;SHT31;70000;51.176;-115.568;2023-12-04T00:32:58;-1.86;89.30
69598;SHT31;70000;51.176;-115.568;2023-12-04T00:35:27;-1.86;89.18
69598;SHT31;70000;51.176;-115.568;2023-12-04T00:37:56;-1.85;89.10
69598;SHT31;70000;51.176;-115.568;2023-12-04T00:40:25;-1.83;89.01
69598;SHT31;70000;51.176;-115.568;2023-12-04T00:42:57;-1.82;89.03
69598;SHT31;70000;51.176;-115.568;2023-12-04T00:45:32;-1.80;89.01
69598;SHT31;70000;51.176;-115.568;2023-12-04T00:48:02;-1.77;88.98
69598;SHT31;70000;51.176;-115.568;2023-12-04T00:50:32;-1.79;88.80
69598;SHT31;70000;51.176;-115.568;2023-12-04T00:53:00;-1.84;88.65
69598;SHT31;70000;51.176;-115.568;2023-12-04T00:55:29;-1.83;88.75
69598;SHT31;70000;51.176;-115.568;2023-12-04T00:57:58;-1.82;88.74
69598;SHT31;70000;51.176;-115.568;2023-12-04T01:00:27;-1.82;88.78
69598;SHT31;70000;51.176;-115.568;2023-12-04T01:02:56;-1.81;88.56
69598;SHT31;70000;51.176;-115.568;2023-12-04T01:05:25;-1.87;88.13
69598;SHT31;70000;51.176;-115.568;2023-12-04T01:08:03;-1.88;88.50
69598;SHT31;70000;51.176;-115.568;2023-12-04T01:10:32;-1.87;88.61
69598;SHT31;70000;51.176;-115.568;2023-12-04T01:13:01;-1.85;88.78
69598;SHT31;70000;51.176;-115.568;2023-12-04T01:15:33;-1.84;88.63
69598;SHT31;70000;51.176;-115.568;2023-12-04T01:18:02;-1.86;88.42
69598;SHT31;70000;51.176;-115.568;2023-12-04T01:20:31;-1.89;88.32
69598;SHT31;70000;51.176;-115.568;2023-12-04T01:23:00;-1.89;88.48
69598;SHT31;70000;51.176;-115.568;2023-12-04T01:25:30;-1.88;88.48
69598;SHT31;70000;51.176;-115.568;2023-12-04T01:28:05;-1.88;88.46
69598;SHT31;70000;51.176;-115.568;2023-12-04T01:30:37;-1.88;88.24
69598;SHT31;70000;51.176;-115.568;2023-12-04T01:33:12;-1.91;88.16
69598;SHT31;70000;51.176;-115.568;2023-12-04T01:35:41;-1.90;88.32
69598;SHT31;70000;51.176;-115.568;2023-12-04T01:38:10;-1.94;87.90
69598;SHT31;70000;51.176;-115.568;2023-12-04T01:40:39;-1.98;87.66
69598;SHT31;70000;51.176;-115.568;2023-12-04T01:43:08;-2.00;87.75
69598;SHT31;70000;51.176;-115.568;2023-12-04T01:45:37;-2.01;87.91
69598;SHT31;70000;51.176;-115.568;2023-12-04T01:48:06;-1.99;87.97
69598;SHT31;70000;51.176;-115.568;2023-12-04T01:50:37;-1.98;88.07
69598;SHT31;70000;51.176;-115.568;2023-12-04T01:53:07;-1.97;87.98
69598;SHT31;70000;51.176;-115.568;2023-12-04T01:55:36;-1.96;87.86
69598;SHT31;70000;51.176;-115.568;2023-12-04T01:58:06;-1.96;87.74
69598;SHT31;70000;51.176;-115.568;2023-12-04T02:00:35;-1.96;87.86
69598;SHT31;70000;51.176;-115.568;2023-12-04T02:03:05;-1.94;87.82
69598;SHT31;70000;51.176;-115.568;2023-12-04T02:05:37;-1.92;87.72
69598;SHT31;70000;51.176;-115.568;2023-12-04T02:08:07;-1.90;87.57
69598;SHT31;70000;51.176;-115.568;2023-12-04T02:10:38;-1.87;87.46
69598;SHT31;70000;51.176;-115.568;2023-12-04T02:16:22;-1.81;87.23
69598;SHT31;70000;51.176;-115.568;2023-12-04T02:18:58;-1.77;86.62
69598;SHT31;70000;51.176;-115.568;2023-12-04T02:21:30;-1.77;86.86
69598;SHT31;70000;51.176;-115.568;2023-12-04T02:24:00;-1.77;86.92
69598;SHT31;70000;51.176;-115.568;2023-12-04T02:26:32;-1.77;87.12
69598;SHT31;70000;51.176;-115.568;2023-12-04T02:29:14;-1.78;87.14
69598;SHT31;70000;51.176;-115.568;2023-12-04T02:31:55;-1.76;87.21
69598;SHT31;70000;51.176;-115.568;2023-12-04T03:07:59;-0.93;85.31
69598;SHT31;70000;51.176;-115.568;2023-12-04T03:10:50;-0.95;85.58
69598;SHT31;70000;51.176;-115.568;2023-12-04T03:17:49;-1.12;85.03
69598;SHT31;70000;51.176;-115.568;2023-12-04T03:20:54;-1.11;85.88
69598;SHT31;70000;51.176;-115.568;2023-12-04T03:25:51;-1.09;86.09
69598;SHT31;70000;51.176;-115.568;2023-12-04T03:28:22;-1.18;85.31
69598;SHT31;70000;51.176;-115.568;2023-12-04T03:30:51;-1.22;85.65
69598;SHT31;70000;51.176;-115.568;2023-12-04T03:33:20;-1.23;85.76
69598;SHT31;70000;51.176;-115.568;2023-12-04T03:35:49;-1.24;85.78
69598;SHT31;70000;51.176;-115.568;2023-12-04T03:38:18;-1.24;85.91
69598;SHT31;70000;51.176;-115.568;2023-12-04T03:40:47;-1.23;85.98
69598;SHT31;70000;51.176;-115.568;2023-12-04T03:43:16;-1.27;85.61
69598;SHT31;70000;51.176;-115.568;2023-12-04T03:45:46;-1.30;85.23
69598;SHT31;70000;51.176;-115.568;2023-12-04T03:48:15;-1.31;85.33
69598;SHT31;70000;51.176;-115.568;2023-12-04T03:50:44;-1.30;85.54
69598;SHT31;70000;51.176;-115.568;2023-12-04T03:53:14;-1.28;85.67
69598;SHT31;70000;51.176;-115.568;2023-12-04T03:55:43;-1.25;85.81
69598;SHT31;70000;51.176;-115.568;2023-12-04T03:58:13;-1.23;85.86
69598;SHT31;70000;51.176;-115.568;2023-12-04T04:00:43;-1.20;85.74
69598;SHT31;70000;51.176;-115.568;2023-12-04T04:03:14;-1.19;85.74
69598;SHT31;70000;51.176;-115.568;2023-12-04T04:05:44;-1.17;85.77
69598;SHT31;70000;51.176;-115.568;2023-12-04T04:08:13;-1.18;85.50
69598;SHT31;70000;51.176;-115.568;2023-12-04T04:10:48;-1.16;85.54
69598;SHT31;70000;51.176;-115.568;2023-12-04T04:13:21;-1.16;85.52
69598;SHT31;70000;51.176;-115.568;2023-12-04T04:15:50;-1.15;84.86
69598;SHT31;70000;51.176;-115.568;2023-12-04T04:18:19;-1.14;84.76
69598;SHT31;70000;51.176;-115.568;2023-12-04T04:20:52;-1.11;84.94
69598;SHT31;70000;51.176;-115.568;2023-12-04T04:23:22;-1.06;85.07
69598;SHT31;70000;51.176;-115.568;2023-12-04T04:25:54;-1.03;85.02
69598;SHT31;70000;51.176;-115.568;2023-12-04T04:28:23;-1.01;84.83
69598;SHT31;70000;51.176;-115.568;2023-12-04T04:30:52;-1.00;84.72
69598;SHT31;70000;51.176;-115.568;2023-12-04T04:33:21;-0.96;84.72
69598;SHT31;70000;51.176;-115.568;2023-12-04T04:35:54;-0.94;84.55
69598;SHT31;70000;51.176;-115.568;2023-12-04T04:38:23;-0.94;84.32
69598;SHT31;70000;51.176;-115.568;2023-12-04T04:40:54;-0.92;84.04
69598;SHT31;70000;51.176;-115.568;2023-12-04T04:43:23;-0.92;83.43
69598;SHT31;70000;51.176;-115.568;2023-12-04T04:45:53;-0.90;83.90
69598;SHT31;70000;51.176;-115.568;2023-12-04T04:48:22;-0.89;83.97
69598;SHT31;70000;51.176;-115.568;2023-12-04T04:50:52;-0.87;84.24
69598;SHT31;70000;51.176;-115.568;2023-12-04T04:53:21;-0.85;84.37
69598;SHT31;70000;51.176;-115.568;2023-12-04T04:55:54;-0.84;84.29
69598;SHT31;70000;51.176;-115.568;2023-12-04T04:58:24;-0.84;84.01
69598;SHT31;70000;51.176;-115.568;2023-12-04T05:00:54;-0.85;83.87
69598;SHT31;70000;51.176;-115.568;2023-12-04T05:03:36;-0.83;84.02
69598;SHT31;70000;51.176;-115.568;2023-12-04T05:06:06;-0.80;84.03
69598;SHT31;70000;51.176;-115.568;2023-12-04T05:08:48;-0.79;83.88
69598;SHT31;70000;51.176;-115.568;2023-12-04T05:11:23;-0.79;83.53
69598;SHT31;70000;51.176;-115.568;2023-12-04T05:13:52;-0.82;83.16
69598;SHT31;70000;51.176;-115.568;2023-12-04T05:16:21;-0.83;82.75
69598;SHT31;70000;51.176;-115.568;2023-12-04T05:22:02;-0.85;82.44
69598;SHT31;70000;51.176;-115.568;2023-12-04T05:24:31;-0.85;82.22
69598;SHT31;70000;51.176;-115.568;2023-12-04T05:27:03;-0.85;82.08
69598;SHT31;70000;51.176;-115.568;2023-12-04T05:30:11;-0.85;80.87
69598;SHT31;70000;51.176;-115.568;2023-12-04T05:32:45;-0.84;80.77
69598;SHT31;70000;51.176;-115.568;2023-12-04T05:35:19;-0.81;81.34
69598;SHT31;70000;51.176;-115.568;2023-12-04T05:38:00;-0.75;81.40
69598;SHT31;70000;51.176;-115.568;2023-12-04T05:40:36;-0.74;81.01
69598;SHT31;70000;51.176;-115.568;2023-12-04T05:43:05;-0.72;80.75
69598;SHT31;70000;51.176;-115.568;2023-12-04T05:45:34;-0.69;80.49
69598;SHT31;70000;51.176;-115.568;2023-12-04T05:48:06;-0.69;79.54
69598;SHT31;70000;51.176;-115.568;2023-12-04T05:50:35;-0.69;79.31
69598;SHT31;70000;51.176;-115.568;2023-12-04T05:53:10;-0.68;79.04
69598;SHT31;70000;51.176;-115.568;2023-12-04T05:55:39;-0.68;79.01
69598;SHT31;70000;51.176;-115.568;2023-12-04T05:58:10;-0.72;78.02
69598;SHT31;70000;51.176;-115.568;2023-12-04T06:00:40;-0.73;77.88
69598;SHT31;70000;51.176;-115.568;2023-12-04T06:03:09;-0.75;77.26
69598;SHT31;70000;51.176;-115.568;2023-12-04T06:05:39;-0.79;77.04
69598;SHT31;70000;51.176;-115.568;2023-12-04T06:08:08;-0.85;76.44
69598;SHT31;70000;51.176;-115.568;2023-12-04T06:10:38;-0.87;77.15
69598;SHT31;70000;51.176;-115.568;2023-12-04T06:13:10;-0.85;77.56
69598;SHT31;70000;51.176;-115.568;2023-12-04T06:15:39;-0.88;77.31
69598;SHT31;70000;51.176;-115.568;2023-12-04T06:18:09;-0.90;77.13
69598;SHT31;70000;51.176;-115.568;2023-12-04T06:20:41;-0.92;77.22
69598;SHT31;70000;51.176;-115.568;2023-12-04T06:23:11;-0.94;77.09
69598;SHT31;70000;51.176;-115.568;2023-12-04T06:25:41;-0.94;77.18
69598;SHT31;70000;51.176;-115.568;2023-12-04T06:28:10;-0.95;77.27
69598;SHT31;70000;51.176;-115.568;2023-12-04T06:30:40;-0.94;77.30
69598;SHT31;70000;51.176;-115.568;2023-12-04T06:33:10;-0.93;77.49
69598;SHT31;70000;51.176;-115.568;2023-12-04T06:35:42;-0.93;77.57
69598;SHT31;70000;51.176;-115.568;2023-12-04T06:38:13;-0.91;77.46
69598;SHT31;70000;51.176;-115.568;2023-12-04T06:40:47;-0.90;77.61
69598;SHT31;70000;51.176;-115.568;2023-12-04T06:43:16;-0.89;77.62
69598;SHT31;70000;51.176;-115.568;2023-12-04T06:45:49;-0.89;77.41
69598;SHT31;70000;51.176;-115.568;2023-12-04T06:48:18;-0.88;77.48
69598;SHT31;70000;51.176;-115.568;2023-12-04T06:50:48;-0.87;77.52
69598;SHT31;70000;51.176;-115.568;2023-12-04T06:53:18;-0.85;77.54
69598;SHT31;70000;51.176;-115.568;2023-12-04T06:55:51;-0.84;77.65
69598;SHT31;70000;51.176;-115.568;2023-12-04T06:58:21;-0.85;77.79
69598;SHT31;70000;51.176;-115.568;2023-12-04T07:10:49;-0.87;76.79
69598;SHT31;70000;51.176;-115.568;2023-12-04T07:13:18;-0.86;76.76
69598;SHT31;70000;51.176;-115.568;2023-12-04T07:15:48;-0.87;76.32
69598;SHT31;70000;51.176;-115.568;2023-12-04T07:18:16;-0.86;76.40
69598;SHT31;70000;51.176;-115.568;2023-12-04T07:20:45;-0.82;76.65
69598;SHT31;70000;51.176;-115.568;2023-12-04T07:23:13;-0.81;76.70
69598;SHT31;70000;51.176;-115.568;2023-12-04T07:25:42;-0.83;76.39
69598;SHT31;70000;51.176;-115.568;2023-12-04T07:28:10;-0.82;76.36
69598;SHT31;70000;51.176;-115.568;2023-12-04T07:30:39;-0.82;76.24
69598;SHT31;70000;51.176;-115.568;2023-12-04T07:33:08;-0.82;76.23
69598;SHT31;70000;51.176;-115.568;2023-12-04T07:35:39;-0.84;75.75
69598;SHT31;70000;51.176;-115.568;2023-12-04T07:38:08;-0.86;75.43
69598;SHT31;70000;51.176;-115.568;2023-12-04T07:40:39;-0.85;75.64
69598;SHT31;70000;51.176;-115.568;2023-12-04T07:43:08;-0.87;75.43
69598;SHT31;70000;51.176;-115.568;2023-12-04T07:45:36;-0.89;75.42
69598;SHT31;70000;51.176;-115.568;2023-12-04T07:56:59;-0.81;75.83
69598;SHT31;70000;51.176;-115.568;2023-12-04T07:59:29;-0.78;76.38
69598;SHT31;70000;51.176;-115.568;2023-12-04T08:01:59;-0.79;75.76
69598;SHT31;70000;51.176;-115.568;2023-12-04T08:04:29;-0.80;75.76
69598;SHT31;70000;51.176;-115.568;2023-12-04T08:06:59;-0.79;75.97
69598;SHT31;70000;51.176;-115.568;2023-12-04T08:09:27;-0.79;75.48
69598;SHT31;70000;51.176;-115.568;2023-12-04T08:12:12;-0.82;75.33
69598;SHT31;70000;51.176;-115.568;2023-12-04T08:14:47;-0.83;75.24
69598;SHT31;70000;51.176;-115.568;2023-12-04T08:21:47;-0.89;74.39
69598;SHT31;70000;51.176;-115.568;2023-12-04T08:24:16;-0.88;74.87
69598;SHT31;70000;51.176;-115.568;2023-12-04T08:26:49;-0.87;75.08
69598;SHT31;70000;51.176;-115.568;2023-12-04T08:29:19;-0.92;74.77
69598;SHT31;70000;51.176;-115.568;2023-12-04T08:31:48;-0.93;75.16
69598;SHT31;70000;51.176;-115.568;2023-12-04T08:34:26;-0.92;75.33
69598;SHT31;70000;51.176;-115.568;2023-12-04T08:36:55;-0.95;75.27
69598;SHT31;70000;51.176;-115.568;2023-12-04T08:39:30;-1.00;74.97
69598;SHT31;70000;51.176;-115.568;2023-12-04T08:42:01;-1.03;74.93
69598;SHT31;70000;51.176;-115.568;2023-12-04T08:44:46;-1.05;74.82
69598;SHT31;70000;51.176;-115.568;2023-12-04T08:47:21;-1.08;74.67
69598;SHT31;70000;51.176;-115.568;2023-12-04T08:49:55;-1.07;74.98
69598;SHT31;70000;51.176;-115.568;2023-12-04T08:52:27;-1.10;74.30
69598;SHT31;70000;51.176;-115.568;2023-12-04T08:55:44;-1.15;74.55
69598;SHT31;70000;51.176;-115.568;2023-12-04T08:58:13;-1.11;74.94
69598;SHT31;70000;51.176;-115.568;2023-12-04T09:00:42;-1.11;74.75
69598;SHT31;70000;51.176;-115.568;2023-12-04T09:03:11;-1.11;74.59
69598;SHT31;70000;51.176;-115.568;2023-12-04T09:05:52;-1.10;74.66
69598;SHT31;70000;51.176;-115.568;2023-12-04T09:08:23;-1.08;74.90
69598;SHT31;70000;51.176;-115.568;2023-12-04T09:11:05;-1.05;74.88
69598;SHT31;70000;51.176;-115.568;2023-12-04T09:13:49;-1.03;74.89
69598;SHT31;70000;51.176;-115.568;2023-12-04T09:16:18;-1.02;74.74
69598;SHT31;70000;51.176;-115.568;2023-12-04T09:18:47;-1.02;74.67
69598;SHT31;70000;51.176;-115.568;2023-12-04T09:21:16;-1.00;74.92
69598;SHT31;70000;51.176;-115.568;2023-12-04T09:23:45;-0.97;75.40
69598;SHT31;70000;51.176;-115.568;2023-12-04T09:26:17;-0.94;75.31
69598;SHT31;70000;51.176;-115.568;2023-12-04T09:28:46;-0.94;75.19
69598;SHT31;70000;51.176;-115.568;2023-12-04T09:31:16;-0.96;74.64
69598;SHT31;70000;51.176;-115.568;2023-12-04T09:33:45;-0.99;74.67
69598;SHT31;70000;51.176;-115.568;2023-12-04T09:36:15;-1.00;74.64
69598;SHT31;70000;51.176;-115.568;2023-12-04T09:38:44;-0.97;74.88
69598;SHT31;70000;51.176;-115.568;2023-12-04T09:41:14;-0.95;75.27
69598;SHT31;70000;51.176;-115.568;2023-12-04T09:43:45;-0.95;75.13
69598;SHT31;70000;51.176;-115.568;2023-12-04T09:46:16;-0.97;74.93
69598;SHT31;70000;51.176;-115.568;2023-12-04T09:48:52;-1.01;74.72
69598;SHT31;70000;51.176;-115.568;2023-12-04T09:51:24;-1.02;74.81
69598;SHT31;70000;51.176;-115.568;2023-12-04T09:53:58;-1.07;74.33
69598;SHT31;70000;51.176;-115.568;2023-12-04T09:56:34;-1.06;74.88
69598;SHT31;70000;51.176;-115.568;2023-12-04T09:59:05;-1.08;74.39
69598;SHT31;70000;51.176;-115.568;2023-12-04T10:01:36;-1.10;74.32
69598;SHT31;70000;51.176;-115.568;2023-12-04T10:04:08;-1.09;74.64
69598;SHT31;70000;51.176;-115.568;2023-12-04T10:06:38;-1.12;74.30
69598;SHT31;70000;51.176;-115.568;2023-12-04T10:09:08;-1.12;74.67
69598;SHT31;70000;51.176;-115.568;2023-12-04T10:11:40;-1.13;74.33
69598;SHT31;70000;51.176;-115.568;2023-12-04T10:14:16;-1.14;74.23
69598;SHT31;70000;51.176;-115.568;2023-12-04T10:16:49;-1.13;74.56
69598;SHT31;70000;51.176;-115.568;2023-12-04T10:19:23;-1.11;74.33
69598;SHT31;70000;51.176;-115.568;2023-12-04T10:22:00;-1.16;73.87
69598;SHT31;70000;51.176;-115.568;2023-12-04T10:24:32;-1.17;74.14
69598;SHT31;70000;51.176;-115.568;2023-12-04T10:27:10;-1.14;74.72
69598;SHT31;70000;51.176;-115.568;2023-12-04T10:29:43;-1.12;74.75
69598;SHT31;70000;51.176;-115.568;2023-12-04T10:32:18;-1.13;74.23
69598;SHT31;70000;51.176;-115.568;2023-12-04T10:34:49;-1.18;73.80
69598;SHT31;70000;51.176;-115.568;2023-12-04T10:37:18;-1.15;74.25
69598;SHT31;70000;51.176;-115.568;2023-12-04T10:39:50;-1.14;74.02
69598;SHT31;70000;51.176;-115.568;2023-12-04T10:42:28;-1.13;74.11
69598;SHT31;70000;51.176;-115.568;2023-12-04T10:44:58;-1.15;73.93
69598;SHT31;70000;51.176;-115.568;2023-12-04T10:47:29;-1.18;73.63
69598;SHT31;70000;51.176;-115.568;2023-12-04T10:49:59;-1.21;73.39
69598;SHT31;70000;51.176;-115.568;2023-12-04T10:52:30;-1.21;73.50
69598;SHT31;70000;51.176;-115.568;2023-12-04T10:55:01;-1.17;74.21
69598;SHT31;70000;51.176;-115.568;2023-12-04T10:57:36;-1.14;73.97
69598;SHT31;70000;51.176;-115.568;2023-12-04T11:00:10;-1.14;73.93
69598;SHT31;70000;51.176;-115.568;2023-12-04T11:02:43;-1.14;73.95
69598;SHT31;70000;51.176;-115.568;2023-12-04T11:05:16;-1.17;73.28
69598;SHT31;70000;51.176;-115.568;2023-12-04T11:07:56;-1.15;73.75
69598;SHT31;70000;51.176;-115.568;2023-12-04T11:10:45;-1.15;73.53
69598;SHT31;70000;51.176;-115.568;2023-12-04T11:13:40;-1.15;73.43
69598;SHT31;70000;51.176;-115.568;2023-12-04T11:19:03;-1.15;73.40
69598;SHT31;70000;51.176;-115.568;2023-12-04T11:22:07;-1.11;73.86
69598;SHT31;70000;51.176;-115.568;2023-12-04T11:24:39;-1.08;73.96
69598;SHT31;70000;51.176;-115.568;2023-12-04T11:27:09;-1.08;73.80
69598;SHT31;70000;51.176;-115.568;2023-12-04T11:29:39;-1.09;73.53
69598;SHT31;70000;51.176;-115.568;2023-12-04T11:32:13;-1.10;73.58
69598;SHT31;70000;51.176;-115.568;2023-12-04T11:34:49;-1.11;73.32
69598;SHT31;70000;51.176;-115.568;2023-12-04T11:37:23;-1.08;73.98
69598;SHT31;70000;51.176;-115.568;2023-12-04T11:39:53;-1.06;73.88
69598;SHT31;70000;51.176;-115.568;2023-12-04T11:42:24;-1.10;73.38
69598;SHT31;70000;51.176;-115.568;2023-12-04T11:44:57;-1.14;73.11
69598;SHT31;70000;51.176;-115.568;2023-12-04T11:47:29;-1.12;73.66
69598;SHT31;70000;51.176;-115.568;2023-12-04T11:50:00;-1.13;73.41
69598;SHT31;70000;51.176;-115.568;2023-12-04T11:52:33;-1.12;73.50
69598;SHT31;70000;51.176;-115.568;2023-12-04T11:55:05;-1.09;73.73
69598;SHT31;70000;51.176;-115.568;2023-12-04T11:57:35;-1.05;73.94
69598;SHT31;70000;51.176;-115.568;2023-12-04T12:05:41;-1.03;73.63
69598;SHT31;70000;51.176;-115.568;2023-12-04T12:08:11;-1.04;73.41
69598;SHT31;70000;51.176;-115.568;2023-12-04T12:10:40;-1.04;73.48
69598;SHT31;70000;51.176;-115.568;2023-12-04T12:13:09;-1.03;73.58
69598;SHT31;70000;51.176;-115.568;2023-12-04T12:15:40;-1.03;73.34
69598;SHT31;70000;51.176;-115.568;2023-12-04T12:18:09;-1.00;73.60
69598;SHT31;70000;51.176;-115.568;2023-12-04T12:20:39;-0.95;73.49
69598;SHT31;70000;51.176;-115.568;2023-12-04T12:23:08;-0.90;73.70
69598;SHT31;70000;51.176;-115.568;2023-12-04T12:25:37;-0.86;73.63
69598;SHT31;70000;51.176;-115.568;2023-12-04T12:28:07;-0.81;73.52
69598;SHT31;70000;51.176;-115.568;2023-12-04T12:30:38;-0.80;73.48
69598;SHT31;70000;51.176;-115.568;2023-12-04T12:33:07;-0.80;73.19
69598;SHT31;70000;51.176;-115.568;2023-12-04T12:35:36;-0.78;73.22
69598;SHT31;70000;51.176;-115.568;2023-12-04T12:38:09;-0.73;73.58
69598;SHT31;70000;51.176;-115.568;2023-12-04T12:40:39;-0.70;73.53
69598;SHT31;70000;51.176;-115.568;2023-12-04T12:43:09;-0.67;73.38
69598;SHT31;70000;51.176;-115.568;2023-12-04T12:45:42;-0.68;73.18
69598;SHT31;70000;51.176;-115.568;2023-12-04T12:48:16;-0.69;73.07
69598;SHT31;70000;51.176;-115.568;2023-12-04T12:50:46;-0.69;73.23
69598;SHT31;70000;51.176;-115.568;2023-12-04T12:53:18;-0.67;73.47
69598;SHT31;70000;51.176;-115.568;2023-12-04T12:55:47;-0.64;73.45
69598;SHT31;70000;51.176;-115.568;2023-12-04T12:58:17;-0.65;73.47
69598;SHT31;70000;51.176;-115.568;2023-12-04T13:00:48;-0.67;73.17
69598;SHT31;70000;51.176;-115.568;2023-12-04T13:03:19;-0.68;73.41
69598;SHT31;70000;51.176;-115.568;2023-12-04T13:05:49;-0.67;73.46
69598;SHT31;70000;51.176;-115.568;2023-12-04T13:08:19;-0.65;73.35
69598;SHT31;70000;51.176;-115.568;2023-12-04T13:10:48;-0.68;72.82
69598;SHT31;70000;51.176;-115.568;2023-12-04T13:13:18;-0.69;72.96
69598;SHT31;70000;51.176;-115.568;2023-12-04T13:15:46;-0.71;72.89
69598;SHT31;70000;51.176;-115.568;2023-12-04T13:18:16;-0.70;73.16
69598;SHT31;70000;51.176;-115.568;2023-12-04T13:34:12;-0.68;72.79
69598;SHT31;70000;51.176;-115.568;2023-12-04T13:36:43;-0.67;72.68
69598;SHT31;70000;51.176;-115.568;2023-12-04T13:39:12;-0.66;72.82
69598;SHT31;70000;51.176;-115.568;2023-12-04T13:41:45;-0.66;72.69
69598;SHT31;70000;51.176;-115.568;2023-12-04T13:44:33;-0.65;72.88
69598;SHT31;70000;51.176;-115.568;2023-12-04T13:47:02;-0.66;72.96
69598;SHT31;70000;51.176;-115.568;2023-12-04T13:49:34;-0.65;73.04
69598;SHT31;70000;51.176;-115.568;2023-12-04T13:52:03;-0.65;73.15
69598;SHT31;70000;51.176;-115.568;2023-12-04T13:54:36;-0.66;73.03
69598;SHT31;70000;51.176;-115.568;2023-12-04T13:57:15;-0.66;73.19
69598;SHT31;70000;51.176;-115.568;2023-12-04T13:59:56;-0.60;73.11
69598;SHT31;70000;51.176;-115.568;2023-12-04T14:02:25;-0.55;73.04
69598;SHT31;70000;51.176;-115.568;2023-12-04T14:04:55;-0.54;72.56
69598;SHT31;70000;51.176;-115.568;2023-12-04T14:07:25;-0.55;72.17
69598;SHT31;70000;51.176;-115.568;2023-12-04T14:09:55;-0.54;72.27
69598;SHT31;70000;51.176;-115.568;2023-12-04T14:12:24;-0.52;72.50
69598;SHT31;70000;51.176;-115.568;2023-12-04T14:14:54;-0.51;72.30
69598;SHT31;70000;51.176;-115.568;2023-12-04T14:17:26;-0.54;72.11
69598;SHT31;70000;51.176;-115.568;2023-12-04T14:19:56;-0.57;72.11
69598;SHT31;70000;51.176;-115.568;2023-12-04T14:22:25;-0.57;72.32
69598;SHT31;70000;51.176;-115.568;2023-12-04T14:24:54;-0.56;72.42
69598;SHT31;70000;51.176;-115.568;2023-12-04T14:27:25;-0.59;71.89
69598;SHT31;70000;51.176;-115.568;2023-12-04T14:29:54;-0.62;71.88
69598;SHT31;70000;51.176;-115.568;2023-12-04T14:32:26;-0.65;72.09
69598;SHT31;70000;51.176;-115.568;2023-12-04T14:35:09;-0.68;72.10
69598;SHT31;70000;51.176;-115.568;2023-12-04T14:37:38;-0.68;72.49
69598;SHT31;70000;51.176;-115.568;2023-12-04T14:40:11;-0.68;72.59
69598;SHT31;70000;51.176;-115.568;2023-12-04T14:42:44;-0.70;72.33
69598;SHT31;70000;51.176;-115.568;2023-12-04T14:45:13;-0.71;72.10
69598;SHT31;70000;51.176;-115.568;2023-12-04T14:47:44;-0.72;72.27
69598;SHT31;70000;51.176;-115.568;2023-12-04T14:50:15;-0.73;72.18
69598;SHT31;70000;51.176;-115.568;2023-12-04T14:52:45;-0.71;72.08
69598;SHT31;70000;51.176;-115.568;2023-12-04T14:55:18;-0.69;72.01
69598;SHT31;70000;51.176;-115.568;2023-12-04T14:57:51;-0.69;72.09
69598;SHT31;70000;51.176;-115.568;2023-12-04T15:00:29;-0.66;72.23
69598;SHT31;70000;51.176;-115.568;2023-12-04T15:03:13;-0.67;71.76
69598;SHT31;70000;51.176;-115.568;2023-12-04T15:05:42;-0.67;71.88
69598;SHT31;70000;51.176;-115.568;2023-12-04T15:08:30;-0.65;71.76
69598;SHT31;70000;51.176;-115.568;2023-12-04T15:11:34;-0.68;71.47
69598;SHT31;70000;51.176;-115.568;2023-12-04T15:14:03;-0.67;71.67
69598;SHT31;70000;51.176;-115.568;2023-12-04T15:16:48;-0.65;71.88
69598;SHT31;70000;51.176;-115.568;2023-12-04T15:19:24;-0.65;71.62
69598;SHT31;70000;51.176;-115.568;2023-12-04T15:22:03;-0.63;71.86
69598;SHT31;70000;51.176;-115.568;2023-12-04T15:24:33;-0.64;71.44
69598;SHT31;70000;51.176;-115.568;2023-12-04T15:27:07;-0.61;71.65
69598;SHT31;70000;51.176;-115.568;2023-12-04T15:29:36;-0.63;71.40
69598;SHT31;70000;51.176;-115.568;2023-12-04T15:32:05;-0.66;71.16
69598;SHT31;70000;51.176;-115.568;2023-12-04T15:34:35;-0.72;71.04
69598;SHT31;70000;51.176;-115.568;2023-12-04T15:37:04;-0.82;70.56
69598;SHT31;70000;51.176;-115.568;2023-12-04T15:39:34;-0.91;70.67
69598;SHT31;70000;51.176;-115.568;2023-12-04T15:42:06;-0.92;71.11
69598;SHT31;70000;51.176;-115.568;2023-12-04T15:44:41;-0.93;71.20
69598;SHT31;70000;51.176;-115.568;2023-12-04T15:47:17;-0.93;71.56
69598;SHT31;70000;51.176;-115.568;2023-12-04T15:49:48;-0.90;71.73
69598;SHT31;70000;51.176;-115.568;2023-12-04T15:52:19;-0.89;71.40
69598;SHT31;70000;51.176;-115.568;2023-12-04T15:54:52;-0.90;70.99
69598;SHT31;70000;51.176;-115.568;2023-12-04T15:57:22;-0.89;70.79
69598;SHT31;70000;51.176;-115.568;2023-12-04T15:59:54;-0.89;70.77
69598;SHT31;70000;51.176;-115.568;2023-12-04T16:02:23;-0.86;71.00
69598;SHT31;70000;51.176;-115.568;2023-12-04T16:04:52;-0.84;70.65
69598;SHT31;70000;51.176;-115.568;2023-12-04T16:07:26;-0.81;70.72
69598;SHT31;70000;51.176;-115.568;2023-12-04T16:09:55;-0.78;70.61
69598;SHT31;70000;51.176;-115.568;2023-12-04T16:12:25;-0.75;70.63
69598;SHT31;70000;51.176;-115.568;2023-12-04T16:14:54;-0.73;70.14
69598;SHT31;70000;51.176;-115.568;2023-12-04T16:17:23;-0.69;70.02
69598;SHT31;70000;51.176;-115.568;2023-12-04T16:19:52;-0.63;70.25
69598;SHT31;70000;51.176;-115.568;2023-12-04T16:22:25;-0.59;70.17
69598;SHT31;70000;51.176;-115.568;2023-12-04T16:25:04;-0.55;70.21
69598;SHT31;70000;51.176;-115.568;2023-12-04T16:27:34;-0.51;69.98
69598;SHT31;70000;51.176;-115.568;2023-12-04T16:30:06;-0.47;69.87
69598;SHT31;70000;51.176;-115.568;2023-12-04T16:32:35;-0.43;69.99
69598;SHT31;70000;51.176;-115.568;2023-12-04T16:35:07;-0.39;69.64
69598;SHT31;70000;51.176;-115.568;2023-12-04T16:37:37;-0.37;69.45
69598;SHT31;70000;51.176;-115.568;2023-12-04T16:40:08;-0.36;68.76
69598;SHT31;70000;51.176;-115.568;2023-12-04T16:42:38;-0.33;69.17
69598;SHT31;70000;51.176;-115.568;2023-12-04T16:45:07;-0.30;69.33
69598;SHT31;70000;51.176;-115.568;2023-12-04T16:47:37;-0.29;68.99